Time;durP1;ratioP1;P1;durP2;ratioP2;P2;SDS_P1;SDS_P2;PMS_P1;PMS_P2;Temp;Humidity;BMP_temperature;BMP_pressure;BME280_temperature;BME280_humidity;BME280_pressure;Samples;Min_cycle;Max_cycle;Signal;HPM_P1;HPM_P2
2024/04/05 00:00:21;;;;;;;61.80;10.05;;;12.20;99.90;;;;;;5056517;28;20218;-66
2024/04/05 00:02:47;;;;;;;76.32;10.15;;;12.20;99.90;;;;;;5057535;28;20197;-66
2024/04/05 00:05:13;;;;;;;66.05;10.63;;;12.20;99.90;;;;;;5059469;28;20187;-67
2024/04/05 00:07:39;;;;;;;58.42;9.35;;;12.20;99.90;;;;;;5056467;28;20181;-67
2024/04/05 00:10:08;;;;;;;67.53;9.88;;;12.20;99.90;;;;;;5057449;28;20186;-67
2024/04/05 00:12:34;;;;;;;62.65;9.57;;;12.10;99.90;;;;;;5057358;28;20190;-67
2024/04/05 00:15:00;;;;;;;64.10;8.43;;;12.20;99.90;;;;;;5056681;28;20214;-66
2024/04/05 00:17:26;;;;;;;60.83;8.00;;;12.20;99.90;;;;;;5057569;28;20186;-66
2024/04/05 00:19:55;;;;;;;58.58;7.82;;;12.20;99.90;;;;;;5056213;28;20214;-66
2024/04/05 00:22:22;;;;;;;59.17;8.43;;;12.20;99.90;;;;;;5039902;28;20198;-66
2024/04/05 00:24:48;;;;;;;65.35;8.30;;;12.10;99.90;;;;;;5059143;28;20294;-66
2024/04/05 00:27:14;;;;;;;55.63;8.35;;;12.20;99.90;;;;;;5054843;28;20505;-66
2024/04/05 00:29:40;;;;;;;50.67;7.80;;;12.20;99.90;;;;;;5058086;28;20186;-67
2024/04/05 00:32:06;;;;;;;58.55;7.60;;;12.10;99.90;;;;;;5057038;28;20218;-68
2024/04/05 00:34:31;;;;;;;54.67;7.55;;;12.20;99.90;;;;;;5022761;28;20194;-65
2024/04/05 00:36:57;;;;;;;50.25;7.57;;;12.10;99.90;;;;;;5040621;28;20658;-65
2024/04/05 00:39:23;;;;;;;59.38;8.00;;;12.10;99.90;;;;;;5055441;28;20202;-67
2024/04/05 00:41:49;;;;;;;58.20;7.68;;;12.10;99.90;;;;;;5055428;28;20686;-66
2024/04/05 00:44:14;;;;;;;51.33;7.72;;;12.10;99.90;;;;;;5058541;28;20201;-67
2024/04/05 00:46:40;;;;;;;59.00;8.00;;;12.10;99.90;;;;;;5056762;28;20197;-66
2024/04/05 00:49:09;;;;;;;63.75;7.70;;;12.10;99.90;;;;;;5057715;28;20286;-67
2024/04/05 00:51:36;;;;;;;65.65;7.35;;;12.10;99.90;;;;;;5038605;28;20959;-67
2024/04/05 00:54:03;;;;;;;47.83;7.28;;;12.10;99.90;;;;;;5056241;28;20222;-66
2024/04/05 00:56:32;;;;;;;58.30;7.50;;;12.10;99.90;;;;;;5058744;28;20198;-66
2024/04/05 00:58:58;;;;;;;42.92;7.40;;;12.10;99.90;;;;;;5055279;28;20301;-65
2024/04/05 01:01:24;;;;;;;55.35;7.35;;;12.10;99.90;;;;;;5056449;28;20216;-66
2024/04/05 01:03:50;;;;;;;51.15;7.22;;;12.10;99.90;;;;;;5059586;28;20673;-66
2024/04/05 01:06:16;;;;;;;48.45;6.90;;;12.10;99.90;;;;;;5055101;28;20213;-67
2024/04/05 01:08:42;;;;;;;53.60;7.50;;;12.10;99.90;;;;;;5054698;28;20286;-65
2024/04/05 01:11:07;;;;;;;44.25;7.15;;;12.10;99.90;;;;;;5058852;28;20296;-67
2024/04/05 01:13:33;;;;;;;44.28;7.35;;;12.10;99.90;;;;;;5040674;28;20197;-66
2024/04/05 01:16:00;;;;;;;46.58;6.50;;;12.10;99.90;;;;;;5059761;28;20711;-69
2024/04/05 01:18:26;;;;;;;46.85;7.03;;;12.10;99.90;;;;;;5060126;28;20532;-66
2024/04/05 01:20:53;;;;;;;55.83;7.00;;;12.00;99.90;;;;;;5060655;28;20191;-66
2024/04/05 01:23:23;;;;;;;41.28;6.72;;;12.10;99.90;;;;;;5062268;28;20182;-66
2024/04/05 01:25:50;;;;;;;38.20;6.53;;;12.10;99.90;;;;;;5061758;28;20186;-66
2024/04/05 01:28:17;;;;;;;49.20;7.18;;;12.10;99.90;;;;;;5060343;28;20201;-65
2024/04/05 01:30:42;;;;;;;45.47;5.97;;;12.10;99.90;;;;;;5062685;28;20190;-65
2024/04/05 01:33:08;;;;;;;41.97;6.78;;;12.10;99.90;;;;;;5059884;28;20310;-66
2024/04/05 01:35:34;;;;;;;40.67;6.43;;;12.10;99.90;;;;;;5060751;28;20186;-67
2024/04/05 01:38:00;;;;;;;52.55;7.70;;;12.10;99.90;;;;;;5044884;28;20728;-66
2024/04/05 01:40:26;;;;;;;57.85;7.13;;;12.10;99.90;;;;;;5060082;28;20273;-66
2024/04/05 01:42:52;;;;;;;38.75;5.80;;;12.10;99.90;;;;;;5062251;28;20286;-65
2024/04/05 01:45:18;;;;;;;36.97;5.75;;;12.10;99.90;;;;;;5062219;28;20179;-66
2024/04/05 01:47:44;;;;;;;40.83;6.80;;;12.10;99.90;;;;;;5041416;28;20183;-66
2024/04/05 01:50:12;;;;;;;43.13;6.57;;;12.10;99.90;;;;;;5040148;28;20202;-66
2024/04/05 01:52:37;;;;;;;35.42;5.53;;;12.10;99.90;;;;;;5061175;28;20182;-67
2024/04/05 01:55:03;;;;;;;41.70;5.88;;;12.10;99.90;;;;;;5060926;28;20194;-67
2024/04/05 01:57:29;;;;;;;40.63;6.38;;;12.20;99.90;;;;;;5061241;28;20564;-67
2024/04/05 01:59:55;;;;;;;34.83;5.60;;;12.10;99.90;;;;;;5059185;28;20211;-68
2024/04/05 02:02:22;;;;;;;37.20;6.10;;;12.20;99.90;;;;;;5060170;28;20186;-67
2024/04/05 02:04:53;;;;;;;44.58;6.35;;;12.20;99.90;;;;;;5061399;28;20182;-67
2024/04/05 02:07:23;;;;;;;43.40;6.28;;;12.20;99.90;;;;;;5059816;28;20190;-67
2024/04/05 02:09:50;;;;;;;37.25;6.00;;;12.20;99.90;;;;;;5060139;28;20194;-65
2024/04/05 02:12:17;;;;;;;41.83;5.90;;;12.20;99.90;;;;;;5061057;28;20547;-66
2024/04/05 02:14:43;;;;;;;40.17;6.38;;;12.20;99.90;;;;;;5059562;28;20599;-66
2024/04/05 02:17:09;;;;;;;31.23;5.45;;;12.20;99.90;;;;;;5042571;28;20182;-67
2024/04/05 02:19:35;;;;;;;39.03;6.10;;;12.20;99.90;;;;;;5060070;28;20214;-66
2024/04/05 02:22:01;;;;;;;42.15;5.95;;;12.20;99.90;;;;;;5043179;28;20197;-67
2024/04/05 02:24:27;;;;;;;38.42;5.78;;;12.20;99.90;;;;;;5059741;28;20187;-66
2024/04/05 02:26:52;;;;;;;39.42;6.15;;;12.20;99.90;;;;;;5059181;28;20239;-67
2024/04/05 02:29:18;;;;;;;36.65;5.38;;;12.20;99.90;;;;;;5060976;28;20319;-67
2024/04/05 02:31:44;;;;;;;39.60;6.63;;;12.10;99.90;;;;;;5062894;28;20271;-66
2024/04/05 02:34:10;;;;;;;40.85;6.43;;;12.10;99.90;;;;;;5059162;28;20195;-65
2024/04/05 02:36:36;;;;;;;36.00;5.63;;;12.10;99.90;;;;;;5060009;28;20244;-67
2024/04/05 02:39:04;;;;;;;33.40;5.35;;;12.10;99.90;;;;;;5061785;28;20209;-66
2024/04/05 02:41:30;;;;;;;34.38;5.07;;;12.10;99.90;;;;;;5041219;28;20222;-67
2024/04/05 02:43:56;;;;;;;29.70;5.00;;;12.10;99.90;;;;;;5052406;28;20199;-65
2024/04/05 02:46:22;;;;;;;47.88;6.05;;;12.10;99.90;;;;;;5044174;28;20243;-65
2024/04/05 02:48:47;;;;;;;34.95;5.63;;;12.10;99.90;;;;;;5058694;28;20703;-67
2024/04/05 02:51:13;;;;;;;40.00;5.88;;;12.10;99.90;;;;;;5060666;28;20239;-66
2024/04/05 02:53:39;;;;;;;37.60;5.57;;;12.00;99.90;;;;;;5061121;28;20194;-68
2024/04/05 02:56:04;;;;;;;35.85;5.25;;;12.00;99.90;;;;;;5058007;28;20201;-66
2024/04/05 02:58:30;;;;;;;39.63;5.97;;;12.00;99.90;;;;;;5042512;28;20270;-67
2024/04/05 03:00:56;;;;;;;28.25;5.32;;;12.00;99.90;;;;;;5061026;28;20202;-66
2024/04/05 03:03:22;;;;;;;35.00;5.00;;;12.00;99.90;;;;;;5057847;28;20545;-66
2024/04/05 03:05:49;;;;;;;31.40;5.15;;;11.90;99.90;;;;;;5041629;28;20392;-66
2024/04/05 03:08:15;;;;;;;39.05;5.78;;;11.90;99.90;;;;;;5059637;28;20182;-68
2024/04/05 03:10:41;;;;;;;37.58;4.97;;;11.90;99.90;;;;;;5058587;28;20191;-67
2024/04/05 03:13:07;;;;;;;36.17;5.70;;;12.00;99.90;;;;;;5041684;28;20188;-67
2024/04/05 03:15:34;;;;;;;26.45;4.88;;;12.00;99.90;;;;;;5057328;28;20199;-66
2024/04/05 03:18:00;;;;;;;34.03;5.85;;;12.00;99.90;;;;;;5061000;28;20237;-65
2024/04/05 03:20:26;;;;;;;34.00;5.00;;;12.00;99.90;;;;;;5042370;28;20800;-65
2024/04/05 03:22:53;;;;;;;34.92;5.40;;;12.10;99.90;;;;;;5059924;28;20534;-66
2024/04/05 03:25:19;;;;;;;31.17;5.00;;;12.10;99.90;;;;;;5060206;28;20188;-66
2024/04/05 03:27:44;;;;;;;34.70;5.75;;;12.10;99.90;;;;;;5043377;28;20562;-65
2024/04/05 03:30:10;;;;;;;31.30;5.05;;;12.10;99.90;;;;;;5038329;28;20194;-66
2024/04/05 03:32:37;;;;;;;37.67;5.28;;;12.10;99.90;;;;;;5057645;28;20195;-66
2024/04/05 03:35:05;;;;;;;30.05;5.32;;;12.10;99.90;;;;;;5058025;28;20206;-64
2024/04/05 03:37:32;;;;;;;32.72;5.22;;;12.10;99.90;;;;;;5058140;28;20248;-67
2024/04/05 03:39:58;;;;;;;35.85;5.15;;;12.20;99.90;;;;;;5059630;28;20293;-66
2024/04/05 03:42:23;;;;;;;31.30;5.50;;;12.20;99.90;;;;;;5057815;28;20337;-66
2024/04/05 03:44:49;;;;;;;37.60;5.32;;;12.20;99.90;;;;;;5056385;28;20187;-66
2024/04/05 03:47:15;;;;;;;38.97;5.50;;;12.20;99.90;;;;;;5058852;28;20228;-67
2024/04/05 03:49:42;;;;;;;38.58;5.97;;;12.20;99.90;;;;;;5039230;28;20190;-66
2024/04/05 03:52:08;;;;;;;28.60;5.03;;;12.20;99.90;;;;;;5057857;28;20197;-66
2024/04/05 03:54:33;;;;;;;36.92;6.40;;;12.20;99.90;;;;;;5060566;28;20659;-66
2024/04/05 03:56:59;;;;;;;38.35;5.60;;;12.20;99.90;;;;;;5056090;28;20607;-66
2024/04/05 03:59:26;;;;;;;29.88;5.20;;;12.20;99.90;;;;;;5057043;28;20211;-66
2024/04/05 04:01:53;;;;;;;40.08;6.32;;;12.20;99.90;;;;;;5060223;28;20187;-67
2024/04/05 04:04:19;;;;;;;40.33;6.00;;;12.20;99.90;;;;;;5056887;28;20876;-66
2024/04/05 04:06:45;;;;;;;30.63;5.35;;;12.30;99.90;;;;;;5057897;28;20186;-65
2024/04/05 04:09:11;;;;;;;29.25;5.65;;;12.30;99.90;;;;;;5040588;28;20214;-67
2024/04/05 04:11:39;;;;;;;39.40;6.82;;;12.30;99.90;;;;;;5056813;28;20286;-67
2024/04/05 04:14:05;;;;;;;35.08;6.20;;;12.30;99.90;;;;;;5056395;28;20563;-68
2024/04/05 04:16:31;;;;;;;27.92;5.38;;;12.30;99.90;;;;;;5056754;28;20195;-66
2024/04/05 04:18:57;;;;;;;45.55;6.32;;;12.30;99.90;;;;;;5056310;28;20619;-67
2024/04/05 04:21:24;;;;;;;32.28;5.65;;;12.30;99.90;;;;;;5057709;28;20186;-65
2024/04/05 04:23:53;;;;;;;42.92;6.40;;;12.30;99.90;;;;;;5052633;28;20183;-66
2024/04/05 04:26:22;;;;;;;38.30;5.78;;;12.40;99.90;;;;;;5056637;28;20188;-67
2024/04/05 04:28:49;;;;;;;32.65;5.97;;;12.30;99.90;;;;;;5058229;28;20186;-67
2024/04/05 04:31:22;;;;;;;38.72;6.15;;;12.30;99.90;;;;;;5054154;28;20182;-67
2024/04/05 04:33:49;;;;;;;34.72;6.10;;;12.30;99.90;;;;;;5054711;28;20198;-68
2024/04/05 04:36:15;;;;;;;32.05;6.47;;;12.30;99.90;;;;;;5057227;28;20269;-66
2024/04/05 04:38:41;;;;;;;41.35;6.53;;;12.30;99.90;;;;;;5057253;28;20293;-67
2024/04/05 04:41:07;;;;;;;33.30;6.45;;;12.30;99.90;;;;;;5056282;28;20222;-66
2024/04/05 04:43:33;;;;;;;34.80;6.25;;;12.30;99.90;;;;;;5056317;28;20185;-66
2024/04/05 04:45:59;;;;;;;33.15;5.65;;;12.30;99.90;;;;;;5039283;28;20192;-66
2024/04/05 04:48:28;;;;;;;36.80;5.80;;;12.30;99.90;;;;;;5057289;28;21260;-66
2024/04/05 04:50:54;;;;;;;33.92;5.88;;;12.30;99.90;;;;;;5053412;28;20222;-67
2024/04/05 04:53:20;;;;;;;34.33;5.82;;;12.30;99.90;;;;;;5056753;28;20336;-67
2024/04/05 04:55:46;;;;;;;37.97;5.65;;;12.30;99.90;;;;;;5040004;28;20289;-68
2024/04/05 04:58:16;;;;;;;40.00;5.90;;;12.30;99.90;;;;;;5055068;28;20952;-68
2024/04/05 05:00:45;;;;;;;40.83;6.22;;;12.30;99.90;;;;;;5057481;28;20221;-65
2024/04/05 05:03:12;;;;;;;36.83;6.35;;;12.30;99.90;;;;;;5059765;28;20688;-66
2024/04/05 05:05:40;;;;;;;33.65;6.15;;;12.30;99.90;;;;;;5058915;28;20540;-67
2024/04/05 05:08:08;;;;;;;29.25;5.15;;;12.30;99.90;;;;;;5055696;28;20603;-66
2024/04/05 05:10:38;;;;;;;31.20;5.88;;;12.30;99.90;;;;;;5058249;28;20317;-66
2024/04/05 05:13:09;;;;;;;35.83;6.30;;;12.30;99.90;;;;;;5057496;28;20604;-66
2024/04/05 05:15:35;;;;;;;29.80;5.60;;;12.30;99.90;;;;;;5057564;28;20208;-67
2024/04/05 05:18:01;;;;;;;43.28;6.45;;;12.30;99.90;;;;;;5055587;28;20221;-67
2024/04/05 05:20:26;;;;;;;35.47;6.88;;;12.30;99.90;;;;;;5057690;28;20267;-66
2024/04/05 05:22:56;;;;;;;31.40;5.57;;;12.30;99.90;;;;;;5059791;28;20183;-68
2024/04/05 05:25:22;;;;;;;39.88;5.95;;;12.30;99.90;;;;;;5055484;28;20195;-66
2024/04/05 05:27:48;;;;;;;32.40;5.88;;;12.30;99.90;;;;;;5057141;28;20281;-66
2024/04/05 05:30:15;;;;;;;34.90;5.95;;;12.30;99.90;;;;;;5057891;28;20256;-66
2024/04/05 05:32:41;;;;;;;31.30;6.30;;;12.30;99.90;;;;;;5056516;28;20269;-66
2024/04/05 05:35:07;;;;;;;34.28;6.22;;;12.30;99.90;;;;;;5056610;28;20319;-66
2024/04/05 05:37:33;;;;;;;31.48;5.85;;;12.40;99.90;;;;;;5035870;28;20205;-68
2024/04/05 05:39:59;;;;;;;38.92;8.07;;;12.30;99.90;;;;;;5038385;28;20254;-67
2024/04/05 05:42:27;;;;;;;34.72;6.20;;;12.30;99.90;;;;;;5058291;28;20254;-67
2024/04/05 05:44:52;;;;;;;29.08;5.93;;;12.40;99.90;;;;;;5054631;28;20191;-66
2024/04/05 05:47:19;;;;;;;30.08;5.88;;;12.40;99.90;;;;;;5056433;28;20696;-66
2024/04/05 05:49:44;;;;;;;31.10;6.47;;;12.40;99.90;;;;;;5055927;28;20659;-68
2024/04/05 05:52:10;;;;;;;30.83;5.85;;;12.40;99.90;;;;;;5037846;28;20194;-68
2024/04/05 05:54:36;;;;;;;28.23;5.72;;;12.50;99.90;;;;;;5039060;28;20206;-66
2024/04/05 05:57:03;;;;;;;26.88;5.40;;;12.50;99.90;;;;;;5053644;28;20539;-66
2024/04/05 05:59:31;;;;;;;26.63;5.85;;;12.60;99.90;;;;;;5040906;28;20498;-67
2024/04/05 06:01:57;;;;;;;37.58;6.35;;;12.60;99.90;;;;;;5062523;28;20277;-67
2024/04/05 06:04:25;;;;;;;33.15;6.05;;;12.60;99.90;;;;;;5058231;28;20183;-66
2024/04/05 06:06:51;;;;;;;31.58;6.25;;;12.70;99.90;;;;;;5059420;28;20191;-69
2024/04/05 06:09:17;;;;;;;34.15;6.85;;;12.70;99.90;;;;;;5058791;28;20681;-67
2024/04/05 06:11:45;;;;;;;32.45;6.15;;;12.70;99.90;;;;;;5059944;28;20702;-67
2024/04/05 06:14:11;;;;;;;31.00;5.68;;;12.70;99.90;;;;;;5042822;28;20195;-68
2024/04/05 06:16:36;;;;;;;31.08;5.65;;;12.80;99.90;;;;;;5039702;28;20198;-68
2024/04/05 06:19:02;;;;;;;32.38;6.03;;;12.80;99.90;;;;;;5061191;28;20221;-68
2024/04/05 06:21:28;;;;;;;32.22;5.95;;;12.80;99.90;;;;;;5061322;28;20297;-67
2024/04/05 06:23:53;;;;;;;30.95;6.15;;;12.80;99.90;;;;;;5059659;28;20186;-67
2024/04/05 06:26:19;;;;;;;28.02;5.38;;;12.80;99.90;;;;;;5060091;28;20725;-67
2024/04/05 06:28:45;;;;;;;33.75;6.30;;;12.80;99.90;;;;;;5040917;28;20195;-66
2024/04/05 06:31:10;;;;;;;25.33;5.68;;;12.80;99.90;;;;;;5042488;28;20602;-65
2024/04/05 06:33:36;;;;;;;28.08;6.13;;;12.80;99.90;;;;;;5054908;28;20187;-66
2024/04/05 06:36:03;;;;;;;28.85;5.95;;;12.80;99.90;;;;;;5041718;28;20186;-67
2024/04/05 06:38:29;;;;;;;28.98;5.82;;;12.80;99.90;;;;;;5040759;28;20216;-66
2024/04/05 06:40:59;;;;;;;31.00;6.55;;;12.90;99.90;;;;;;5040309;28;20231;-66
2024/04/05 06:43:30;;;;;;;31.90;6.47;;;12.90;99.90;;;;;;5059161;28;20192;-67
2024/04/05 06:46:03;;;;;;;29.23;5.97;;;12.90;99.90;;;;;;5062436;28;20199;-67
2024/04/05 06:48:31;;;;;;;30.60;6.35;;;13.00;99.90;;;;;;5056815;28;20649;-71
2024/04/05 06:50:57;;;;;;;28.70;5.85;;;13.00;99.90;;;;;;5061472;28;20559;-69
2024/04/05 06:53:29;;;;;;;27.00;5.55;;;13.10;99.90;;;;;;5059811;28;20290;-67
2024/04/05 06:55:55;;;;;;;34.75;6.68;;;13.10;99.90;;;;;;5060576;28;20357;-66
2024/04/05 06:58:22;;;;;;;34.78;6.47;;;13.10;99.90;;;;;;5057772;28;20191;-68
2024/04/05 07:00:48;;;;;;;29.88;6.13;;;13.20;99.90;;;;;;5056936;28;20214;-69
2024/04/05 07:03:15;;;;;;;30.48;6.28;;;13.20;99.90;;;;;;5060675;28;20190;-67
2024/04/05 07:05:41;;;;;;;23.38;6.18;;;13.30;99.90;;;;;;5060331;28;20183;-66
2024/04/05 07:08:07;;;;;;;26.02;6.10;;;13.30;99.90;;;;;;5059939;28;20688;-67
2024/04/05 07:10:34;;;;;;;33.97;6.20;;;13.30;99.90;;;;;;5060752;28;20222;-67
2024/04/05 07:13:00;;;;;;;28.40;6.00;;;13.40;99.90;;;;;;5060574;28;20354;-67
2024/04/05 07:15:26;;;;;;;28.77;6.35;;;13.40;99.90;;;;;;5040541;28;20189;-66
2024/04/05 07:17:54;;;;;;;28.92;6.07;;;13.50;99.90;;;;;;5041924;28;20847;-67
2024/04/05 07:20:26;;;;;;;25.63;5.50;;;13.50;99.90;;;;;;5061076;28;20219;-66
2024/04/05 07:22:53;;;;;;;27.33;6.50;;;13.60;99.90;;;;;;5059563;28;20543;-68
2024/04/05 07:25:23;;;;;;;30.63;6.72;;;13.60;99.90;;;;;;5059770;28;20216;-66
2024/04/05 07:27:54;;;;;;;27.73;6.00;;;13.70;99.90;;;;;;5035034;28;20557;-66
2024/04/05 07:30:22;;;;;;;34.10;6.32;;;13.70;99.90;;;;;;5058376;28;20658;-68
2024/04/05 07:32:49;;;;;;;22.75;5.70;;;13.80;99.90;;;;;;5057671;28;20186;-66
2024/04/05 07:35:15;;;;;;;25.08;5.65;;;13.80;99.90;;;;;;5059937;28;20277;-67
2024/04/05 07:37:41;;;;;;;23.90;5.68;;;13.90;99.90;;;;;;5059406;28;20277;-67
2024/04/05 07:40:08;;;;;;;27.17;5.88;;;14.00;99.90;;;;;;5058091;28;20285;-68
2024/04/05 07:42:35;;;;;;;36.63;12.98;;;14.00;99.90;;;;;;5058391;28;20271;-66
2024/04/05 07:45:03;;;;;;;29.67;6.18;;;14.00;99.90;;;;;;5059757;28;20197;-67
2024/04/05 07:47:29;;;;;;;21.90;5.43;;;14.10;99.90;;;;;;5025466;28;20195;-67
2024/04/05 07:49:55;;;;;;;23.35;5.50;;;14.10;99.90;;;;;;5054206;28;20198;-67
2024/04/05 07:52:21;;;;;;;28.20;7.30;;;14.20;99.90;;;;;;5059051;28;20191;-67
2024/04/05 07:54:47;;;;;;;23.15;6.38;;;14.20;99.90;;;;;;5042964;28;20197;-67
2024/04/05 07:57:13;;;;;;;17.98;5.75;;;14.30;99.90;;;;;;5055942;28;20191;-66
2024/04/05 07:59:40;;;;;;;23.45;5.40;;;14.40;99.90;;;;;;5056856;28;20303;-67
2024/04/05 08:02:06;;;;;;;23.02;5.45;;;14.50;99.90;;;;;;5060492;28;20240;-67
2024/04/05 08:04:33;;;;;;;19.48;5.30;;;14.50;99.90;;;;;;5057514;28;20193;-68
2024/04/05 08:06:59;;;;;;;24.02;5.47;;;14.60;99.90;;;;;;5058537;28;20210;-69
2024/04/05 08:09:25;;;;;;;21.17;5.40;;;14.60;99.90;;;;;;5059014;28;20230;-67
2024/04/05 08:11:51;;;;;;;24.08;5.70;;;14.70;99.90;;;;;;5058769;28;20199;-66
2024/04/05 08:14:17;;;;;;;24.67;6.10;;;14.70;99.90;;;;;;5057538;28;20190;-67
2024/04/05 08:16:43;;;;;;;25.40;5.20;;;14.80;99.90;;;;;;5059608;28;20274;-67
2024/04/05 08:19:08;;;;;;;23.80;6.05;;;14.80;99.90;;;;;;5058635;28;20201;-68
2024/04/05 08:21:34;;;;;;;20.38;5.15;;;14.90;99.90;;;;;;5057569;28;20205;-67
2024/04/05 08:24:00;;;;;;;16.27;5.45;;;15.00;99.90;;;;;;5058705;28;20556;-67
2024/04/05 08:26:25;;;;;;;22.27;6.05;;;15.00;99.90;;;;;;5058670;28;20260;-65
2024/04/05 08:28:52;;;;;;;26.40;5.75;;;15.10;99.90;;;;;;5059537;28;20174;-68
2024/04/05 08:31:19;;;;;;;22.05;5.15;;;15.20;99.90;;;;;;5057411;28;20195;-66
2024/04/05 08:33:45;;;;;;;24.45;5.70;;;15.30;99.90;;;;;;5059180;28;20182;-66
2024/04/05 08:36:11;;;;;;;18.65;5.97;;;15.40;99.90;;;;;;5042329;28;20240;-67
2024/04/05 08:38:37;;;;;;;23.85;5.60;;;15.40;99.90;;;;;;5058631;28;20180;-68
2024/04/05 08:41:11;;;;;;;20.02;5.10;;;15.50;99.90;;;;;;5057661;28;20367;-66
2024/04/05 08:43:41;;;;;;;25.40;6.50;;;15.50;99.90;;;;;;5057484;28;20593;-67
2024/04/05 08:46:07;;;;;;;19.27;5.53;;;15.60;99.90;;;;;;5059575;28;20194;-68
2024/04/05 08:48:36;;;;;;;18.15;5.32;;;15.50;99.90;;;;;;5059271;28;20270;-68
2024/04/05 08:51:09;;;;;;;16.25;4.68;;;15.50;99.90;;;;;;5059998;28;20271;-68
2024/04/05 08:53:35;;;;;;;17.35;6.53;;;15.50;99.90;;;;;;5060698;28;20225;-69
2024/04/05 08:56:02;;;;;;;19.40;6.13;;;15.60;99.90;;;;;;5057959;28;20207;-67
2024/04/05 08:58:29;;;;;;;22.55;5.90;;;15.60;99.90;;;;;;5059531;28;20697;-67
2024/04/05 09:00:54;;;;;;;17.48;5.40;;;15.60;99.90;;;;;;5058164;28;20221;-67
2024/04/05 09:03:20;;;;;;;24.13;6.20;;;15.60;99.90;;;;;;5059956;28;20190;-66
2024/04/05 09:05:49;;;;;;;15.77;4.75;;;15.60;99.90;;;;;;5060332;28;20183;-66
2024/04/05 09:08:15;;;;;;;23.13;5.57;;;15.70;99.90;;;;;;5059935;28;20191;-68
2024/04/05 09:10:50;;;;;;;18.52;5.03;;;15.70;99.90;;;;;;5059743;28;20675;-67
2024/04/05 09:13:20;;;;;;;18.98;5.32;;;15.70;99.90;;;;;;5057904;28;20190;-69
2024/04/05 09:15:52;;;;;;;19.45;4.43;;;15.70;99.90;;;;;;5059973;28;20194;-67
2024/04/05 09:18:28;;;;;;;20.35;4.68;;;15.70;99.90;;;;;;5059080;28;20492;-68
2024/04/05 09:20:55;;;;;;;15.35;4.07;;;15.80;99.90;;;;;;5040022;28;20218;-67
2024/04/05 09:23:21;;;;;;;13.27;4.53;;;15.70;99.90;;;;;;5060505;28;20227;-68
2024/04/05 09:26:02;;;;;;;14.55;4.78;;;15.60;99.90;;;;;;5041637;28;20197;-66
2024/04/05 09:28:29;;;;;;;23.17;5.07;;;15.60;99.90;;;;;;5058632;28;20190;-68
2024/04/05 09:30:59;;;;;;;14.90;5.10;;;15.50;99.90;;;;;;5057316;28;20231;-68
2024/04/05 09:33:25;;;;;;;15.95;4.50;;;15.40;99.90;;;;;;5062233;28;20509;-67
2024/04/05 09:35:53;;;;;;;14.05;4.70;;;15.40;99.90;;;;;;5030061;28;20205;-68
2024/04/05 09:38:20;;;;;;;20.00;5.90;;;15.30;99.90;;;;;;5062530;28;20190;-66
2024/04/05 09:40:47;;;;;;;17.80;6.00;;;15.20;99.90;;;;;;5044454;28;20566;-67
2024/04/05 09:43:15;;;;;;;18.02;5.78;;;15.20;99.90;;;;;;5043441;28;20191;-67
2024/04/05 09:45:42;;;;;;;15.98;5.75;;;15.20;99.90;;;;;;5053360;28;20191;-67
2024/04/05 09:48:10;;;;;;;13.85;5.35;;;15.20;99.90;;;;;;5062308;28;20188;-67
2024/04/05 09:50:37;;;;;;;18.98;5.70;;;15.20;99.90;;;;;;5062504;28;20190;-66
2024/04/05 09:53:04;;;;;;;14.48;4.50;;;15.10;99.90;;;;;;5062923;28;20218;-67
2024/04/05 09:55:39;;;;;;;18.08;5.40;;;15.10;99.90;;;;;;5061773;28;20714;-68
2024/04/05 09:58:07;;;;;;;14.98;5.07;;;15.20;99.90;;;;;;5061803;28;20543;-66
2024/04/05 10:00:36;;;;;;;14.82;4.55;;;15.20;99.90;;;;;;5063328;28;20749;-66
2024/04/05 10:03:05;;;;;;;16.40;4.78;;;15.10;99.90;;;;;;5062595;28;21119;-66
2024/04/05 10:05:34;;;;;;;13.35;4.43;;;15.10;99.90;;;;;;5061176;28;20186;-66
2024/04/05 10:08:16;;;;;;;16.52;5.13;;;15.00;99.90;;;;;;5041015;28;20201;-68
2024/04/05 10:10:45;;;;;;;17.73;4.60;;;15.00;99.90;;;;;;5060069;28;20194;-68
2024/04/05 10:13:17;;;;;;;18.27;4.50;;;15.00;99.90;;;;;;5060815;28;20544;-68
2024/04/05 10:15:59;;;;;;;21.35;5.18;;;14.90;99.90;;;;;;5060877;28;20191;-70
2024/04/05 10:18:30;;;;;;;16.80;5.00;;;14.90;99.90;;;;;;5061861;28;20275;-69
2024/04/05 10:21:13;;;;;;;14.60;4.35;;;14.80;99.90;;;;;;5060188;28;20213;-66
2024/04/05 10:23:42;;;;;;;12.80;4.70;;;14.80;99.90;;;;;;5062029;28;20685;-67
2024/04/05 10:26:13;;;;;;;14.65;5.10;;;14.70;99.90;;;;;;5043011;28;20179;-67
2024/04/05 10:28:40;;;;;;;13.05;4.63;;;14.70;99.90;;;;;;5062320;28;20547;-67
2024/04/05 10:31:06;;;;;;;20.05;4.68;;;14.70;99.90;;;;;;5044485;28;20218;-67
2024/04/05 10:33:32;;;;;;;13.13;4.60;;;14.70;99.90;;;;;;5062893;28;20191;-65
2024/04/05 10:35:59;;;;;;;13.75;4.30;;;14.70;99.90;;;;;;5062063;28;20665;-66
2024/04/05 10:38:27;;;;;;;15.30;4.72;;;14.70;99.90;;;;;;5060199;28;20223;-66
2024/04/05 10:41:03;;;;;;;14.80;4.50;;;14.70;99.90;;;;;;5059333;28;20678;-69
2024/04/05 10:43:30;;;;;;;18.13;5.05;;;14.70;99.90;;;;;;5034145;28;20187;-67
2024/04/05 10:45:58;;;;;;;11.73;4.65;;;14.70;99.90;;;;;;5059931;28;20201;-66
2024/04/05 10:48:24;;;;;;;15.00;4.95;;;14.60;99.90;;;;;;5058923;28;20264;-69
2024/04/05 10:50:51;;;;;;;14.02;4.78;;;14.60;99.90;;;;;;5044087;28;20186;-68
2024/04/05 10:53:19;;;;;;;12.35;4.95;;;14.70;99.90;;;;;;5059158;28;20228;-68
2024/04/05 10:55:45;;;;;;;16.63;5.30;;;14.70;99.90;;;;;;5059778;28;20201;-67
2024/04/05 10:58:12;;;;;;;22.17;4.57;;;14.80;99.90;;;;;;5060101;28;20187;-67
2024/04/05 11:00:39;;;;;;;17.08;5.57;;;14.80;99.90;;;;;;5059858;28;20230;-69
2024/04/05 11:03:09;;;;;;;16.98;5.47;;;14.80;99.90;;;;;;5059826;28;20197;-67
2024/04/05 11:05:36;;;;;;;18.35;5.20;;;14.90;99.90;;;;;;5059718;28;20206;-67
2024/04/05 11:08:04;;;;;;;14.13;4.88;;;14.90;99.90;;;;;;5060767;28;20194;-69
2024/04/05 11:10:30;;;;;;;15.38;4.65;;;14.90;99.90;;;;;;5060009;28;20179;-69
2024/04/05 11:12:56;;;;;;;13.50;4.68;;;15.00;99.90;;;;;;5051175;28;21248;-66
2024/04/05 11:15:22;;;;;;;11.18;4.82;;;15.10;99.90;;;;;;5052919;28;20249;-67
2024/04/05 11:18:03;;;;;;;18.05;5.05;;;15.20;99.90;;;;;;5042981;28;21092;-67
2024/04/05 11:20:34;;;;;;;16.50;4.65;;;15.20;99.90;;;;;;5058647;28;20244;-67
2024/04/05 11:23:04;;;;;;;13.43;4.68;;;15.20;99.90;;;;;;5061208;28;20214;-67
2024/04/05 11:25:31;;;;;;;13.00;4.72;;;15.30;99.90;;;;;;5056081;28;20186;-68
2024/04/05 11:27:57;;;;;;;14.77;4.57;;;15.30;99.90;;;;;;5040672;28;20193;-67
2024/04/05 11:30:24;;;;;;;14.45;4.18;;;15.30;99.90;;;;;;5059078;28;20217;-67
2024/04/05 11:32:50;;;;;;;13.85;4.97;;;15.30;99.90;;;;;;5037883;28;20187;-67
2024/04/05 11:35:16;;;;;;;11.95;4.38;;;15.30;99.90;;;;;;5059626;28;20206;-66
2024/04/05 11:37:46;;;;;;;12.20;4.38;;;15.20;99.90;;;;;;5059272;28;20205;-68
2024/04/05 11:40:13;;;;;;;12.43;4.20;;;15.20;99.90;;;;;;5059180;28;20230;-67
2024/04/05 11:42:41;;;;;;;10.75;3.75;;;15.10;99.90;;;;;;5060304;28;20254;-67
2024/04/05 11:45:07;;;;;;;10.75;4.10;;;15.20;99.90;;;;;;5049213;28;20183;-68
2024/04/05 11:47:34;;;;;;;10.20;3.90;;;15.20;99.90;;;;;;5058819;28;20191;-69
2024/04/05 11:50:00;;;;;;;11.05;3.58;;;15.20;99.90;;;;;;5059107;28;21284;-70
2024/04/05 11:52:27;;;;;;;11.95;3.95;;;15.30;99.90;;;;;;5059189;28;20192;-68
2024/04/05 11:54:53;;;;;;;8.75;3.80;;;15.30;99.90;;;;;;5041984;28;20199;-69
2024/04/05 11:57:19;;;;;;;13.70;4.00;;;15.30;99.90;;;;;;5042112;28;20194;-66
2024/04/05 11:59:44;;;;;;;12.98;4.07;;;15.30;99.90;;;;;;5040593;28;20285;-66
2024/04/05 12:02:11;;;;;;;10.35;4.57;;;15.30;99.90;;;;;;5058697;28;20659;-68
2024/04/05 12:04:37;;;;;;;10.05;3.80;;;15.20;99.90;;;;;;5024266;28;20183;-68
2024/04/05 12:07:12;;;;;;;13.43;3.72;;;15.30;99.90;;;;;;5042155;28;20191;-70
2024/04/05 12:09:37;;;;;;;9.60;3.88;;;15.20;99.90;;;;;;5059162;28;20198;-68
2024/04/05 12:12:04;;;;;;;15.10;4.75;;;15.20;99.90;;;;;;5058258;28;20207;-68
2024/04/05 12:14:32;;;;;;;12.40;4.80;;;15.10;99.90;;;;;;5060306;28;20257;-68
2024/04/05 12:17:02;;;;;;;11.52;4.35;;;15.10;99.90;;;;;;5060378;28;20203;-68
2024/04/05 12:19:28;;;;;;;11.48;4.43;;;15.10;99.90;;;;;;5057312;28;20225;-66
2024/04/05 12:21:54;;;;;;;14.52;4.53;;;15.00;99.90;;;;;;5041642;28;20187;-68
2024/04/05 12:24:20;;;;;;;13.70;5.72;;;15.00;99.90;;;;;;5057777;28;20289;-68
2024/04/05 12:26:46;;;;;;;16.67;5.10;;;14.90;99.90;;;;;;5058885;28;20191;-68
2024/04/05 12:29:12;;;;;;;14.25;4.72;;;14.90;99.90;;;;;;5058985;28;20198;-68
2024/04/05 12:31:40;;;;;;;17.02;5.15;;;14.90;99.90;;;;;;5056674;28;20191;-69
2024/04/05 12:34:06;;;;;;;9.88;4.20;;;14.90;99.90;;;;;;5058254;28;20221;-68